createdAt,value
2022-09-28T00:01:41.574Z,11.92
2022-09-28T00:04:07.993Z,11.92
2022-09-28T00:06:34.427Z,11.91
2022-09-28T00:09:01.830Z,11.90
2022-09-28T00:11:29.068Z,11.91
2022-09-28T00:14:00.869Z,11.90
2022-09-28T00:16:33.216Z,11.89
2022-09-28T00:19:00.014Z,11.89
2022-09-28T00:21:32.038Z,11.86
2022-09-28T00:24:12.418Z,11.87
2022-09-28T00:26:44.716Z,11.85
2022-09-28T00:29:17.746Z,11.83
2022-09-28T00:31:44.642Z,11.82
2022-09-28T00:34:11.443Z,11.81
2022-09-28T00:36:38.003Z,11.81
2022-09-28T00:39:06.891Z,11.80
2022-09-28T00:41:33.862Z,11.80
2022-09-28T00:44:22.210Z,11.82
2022-09-28T00:46:51.080Z,11.80
2022-09-28T00:49:20.114Z,11.80
2022-09-28T00:51:47.389Z,11.80
2022-09-28T00:54:15.105Z,11.79
2022-09-28T00:56:43.759Z,11.79
2022-09-28T00:59:10.369Z,11.80
2022-09-28T01:01:37.057Z,11.79
2022-09-28T01:04:04.814Z,11.80
2022-09-28T01:06:33.687Z,11.79
2022-09-28T01:09:03.676Z,11.80
2022-09-28T01:11:31.594Z,11.78
2022-09-28T01:13:58.485Z,11.78
2022-09-28T01:16:52.025Z,11.78
2022-09-28T01:19:34.282Z,11.75
2022-09-28T01:22:24.308Z,11.73
2022-09-28T01:25:27.571Z,11.72
2022-09-28T01:28:05.346Z,11.71
2022-09-28T01:30:39.251Z,11.70
2022-09-28T01:33:09.131Z,11.69
2022-09-28T01:35:43.361Z,11.69
2022-09-28T01:38:14.158Z,11.67
2022-09-28T01:40:41.436Z,11.66
2022-09-28T01:43:18.175Z,11.65
2022-09-28T01:45:50.500Z,11.66
2022-09-28T01:48:21.109Z,11.64
2022-09-28T01:50:50.913Z,11.61
2022-09-28T01:53:22.799Z,11.57
2022-09-28T01:55:53.007Z,11.57
2022-09-28T01:58:32.422Z,11.54
2022-09-28T02:01:09.966Z,11.52
2022-09-28T02:03:42.209Z,11.50
2022-09-28T02:06:31.886Z,11.46
2022-09-28T02:09:03.712Z,11.45
2022-09-28T02:11:30.868Z,11.42
2022-09-28T02:14:05.896Z,11.42
2022-09-28T02:16:39.264Z,11.40
2022-09-28T02:19:07.510Z,11.38
2022-09-28T02:21:59.020Z,11.36
2022-09-28T02:24:29.684Z,11.35
2022-09-28T02:26:58.898Z,11.34
2022-09-28T02:29:25.294Z,11.32
2022-09-28T02:31:51.964Z,11.32
2022-09-28T02:34:18.502Z,11.31
2022-09-28T02:36:45.787Z,11.31
2022-09-28T02:39:14.271Z,11.31
2022-09-28T02:42:41.882Z,11.30
2022-09-28T02:45:16.090Z,11.30
2022-09-28T02:47:56.554Z,11.30
2022-09-28T02:50:50.819Z,11.28
2022-09-28T02:53:44.527Z,11.26
2022-09-28T02:56:28.931Z,11.24
2022-09-28T02:59:33.221Z,11.22
2022-09-28T03:02:02.020Z,11.19
2022-09-28T03:04:36.982Z,11.17
2022-09-28T03:07:12.940Z,11.16
2022-09-28T03:09:59.004Z,11.14
2022-09-28T03:12:26.569Z,11.12
2022-09-28T03:15:10.576Z,11.10
2022-09-28T03:17:37.437Z,11.09
2022-09-28T03:20:04.642Z,11.06
2022-09-28T03:22:31.022Z,11.04
2022-09-28T03:24:57.435Z,11.01
2022-09-28T03:27:23.803Z,11.00
2022-09-28T03:29:50.282Z,10.98
2022-09-28T03:32:16.695Z,10.95
2022-09-28T03:34:43.114Z,10.92
2022-09-28T03:37:09.515Z,10.90
2022-09-28T03:39:36.303Z,10.85
2022-09-28T03:42:02.688Z,10.83
2022-09-28T03:44:29.087Z,10.79
2022-09-28T03:46:55.478Z,10.76
2022-09-28T03:49:21.873Z,10.72
2022-09-28T03:51:48.256Z,10.71
2022-09-28T03:54:14.641Z,10.70
2022-09-28T03:56:41.306Z,10.67
2022-09-28T03:59:07.712Z,10.66
2022-09-28T04:01:34.158Z,10.64
2022-09-28T04:04:00.727Z,10.64
2022-09-28T04:06:27.150Z,10.64
2022-09-28T04:08:53.592Z,10.62
2022-09-28T04:11:20.008Z,10.64
2022-09-28T04:13:50.086Z,10.63
2022-09-28T04:16:17.861Z,10.62
2022-09-28T04:18:44.467Z,10.62
2022-09-28T04:21:13.325Z,10.61
2022-09-28T04:23:40.819Z,10.60
2022-09-28T04:26:16.681Z,10.59
2022-09-28T04:29:06.581Z,10.59
2022-09-28T04:31:41.587Z,10.58
2022-09-28T04:34:08.769Z,10.60
2022-09-28T04:36:35.209Z,10.59
2022-09-28T04:39:01.596Z,10.58
2022-09-28T04:41:28.052Z,10.56
2022-09-28T04:43:54.459Z,10.55
2022-09-28T04:46:21.211Z,10.55
2022-09-28T04:48:47.661Z,10.55
2022-09-28T04:51:15.030Z,10.54
2022-09-28T04:53:41.445Z,10.55
2022-09-28T04:56:11.081Z,10.58
2022-09-28T04:58:39.123Z,10.61
2022-09-28T05:01:11.505Z,10.60
2022-09-28T05:03:38.376Z,10.61
2022-09-28T05:06:06.823Z,10.62
2022-09-28T05:08:35.108Z,10.62
2022-09-28T05:11:06.347Z,10.62
2022-09-28T05:13:41.669Z,10.62
2022-09-28T05:16:09.119Z,10.66
2022-09-28T05:18:35.969Z,10.69
2022-09-28T05:21:02.383Z,10.67
2022-09-28T05:23:28.774Z,10.67
2022-09-28T05:25:55.393Z,10.65
2022-09-28T05:28:27.281Z,10.63
2022-09-28T05:30:58.460Z,10.65
2022-09-28T05:33:24.862Z,10.66
2022-09-28T05:35:55.121Z,10.65
2022-09-28T05:38:23.658Z,10.65
2022-09-28T05:40:50.432Z,10.65
2022-09-28T05:43:16.892Z,10.66
2022-09-28T05:45:43.336Z,10.67
2022-09-28T05:48:09.760Z,10.70
2022-09-28T05:50:36.419Z,10.71
2022-09-28T05:53:08.213Z,10.71
2022-09-28T05:55:35.522Z,10.71
2022-09-28T05:58:04.814Z,10.70
2022-09-28T06:00:32.428Z,10.72
2022-09-28T06:03:08.546Z,10.72
2022-09-28T06:05:36.342Z,10.73
2022-09-28T06:08:05.093Z,10.73
2022-09-28T06:10:32.236Z,10.74
2022-09-28T06:12:59.121Z,10.74
2022-09-28T06:15:27.929Z,10.74
2022-09-28T06:18:02.399Z,10.76
2022-09-28T06:20:30.312Z,10.76
2022-09-28T06:23:03.582Z,10.75
2022-09-28T06:25:30.237Z,10.75
2022-09-28T06:28:01.945Z,10.74
2022-09-28T06:30:29.857Z,10.75
2022-09-28T06:32:58.014Z,10.77
2022-09-28T06:35:26.138Z,10.78
2022-09-28T06:37:53.355Z,10.77
2022-09-28T06:40:20.886Z,10.78
2022-09-28T06:43:10.021Z,10.80
2022-09-28T06:45:37.669Z,10.80
2022-09-28T06:48:05.521Z,10.81
2022-09-28T06:50:34.345Z,10.82
2022-09-28T06:53:01.279Z,10.81
2022-09-28T06:55:28.283Z,10.83
2022-09-28T06:58:02.932Z,10.82
2022-09-28T07:00:33.791Z,10.82
2022-09-28T07:03:02.576Z,10.87
2022-09-28T07:05:29.766Z,10.88
2022-09-28T07:07:56.905Z,10.88
2022-09-28T07:10:24.592Z,10.89
2022-09-28T07:12:51.653Z,10.92
2022-09-28T07:15:18.802Z,10.93
2022-09-28T07:17:58.770Z,10.95
2022-09-28T07:20:27.206Z,10.96
2022-09-28T07:23:08.714Z,10.98
2022-09-28T07:25:45.318Z,11.00
2022-09-28T07:28:12.068Z,11.04
2022-09-28T07:30:38.717Z,11.06
2022-09-28T07:33:06.658Z,11.07
2022-09-28T07:35:34.334Z,11.09
2022-09-28T07:38:07.993Z,11.12
2022-09-28T07:40:54.157Z,11.13
2022-09-28T07:43:21.386Z,11.16
2022-09-28T07:45:49.229Z,11.20
2022-09-28T07:48:16.323Z,11.23
2022-09-28T07:50:43.731Z,11.25
2022-09-28T07:53:10.160Z,11.28
2022-09-28T07:55:36.540Z,11.31
2022-09-28T07:58:02.947Z,11.32
2022-09-28T08:00:34.230Z,11.32
2022-09-28T08:03:03.998Z,11.34
2022-09-28T08:05:31.217Z,11.35
2022-09-28T08:07:59.559Z,11.38
2022-09-28T08:10:26.579Z,11.44
2022-09-28T08:12:59.229Z,11.50
2022-09-28T08:15:29.516Z,11.52
2022-09-28T08:17:59.114Z,11.56
2022-09-28T08:20:49.426Z,11.60
2022-09-28T08:23:17.948Z,11.63
2022-09-28T08:25:49.034Z,11.65
2022-09-28T08:28:17.504Z,11.68
2022-09-28T08:30:45.105Z,11.72
2022-09-28T08:33:16.088Z,11.76
2022-09-28T08:35:42.496Z,11.80
2022-09-28T08:38:09.458Z,11.82
2022-09-28T08:41:00.486Z,11.88
2022-09-28T08:43:51.689Z,11.92
2022-09-28T08:46:23.902Z,11.94
2022-09-28T08:49:23.921Z,11.96
2022-09-28T08:52:04.897Z,11.99
2022-09-28T08:54:50.301Z,12.01
2022-09-28T08:57:25.178Z,12.01
2022-09-28T08:59:54.086Z,12.01
2022-09-28T09:02:27.587Z,12.04
2022-09-28T09:04:54.724Z,12.04
2022-09-28T09:07:30.807Z,12.06
2022-09-28T09:10:00.211Z,12.07
2022-09-28T09:12:44.032Z,12.12
2022-09-28T09:15:32.256Z,12.12
2022-09-28T09:18:07.760Z,12.13
2022-09-28T09:20:45.686Z,12.15
2022-09-28T09:23:29.477Z,12.16
2022-09-28T09:26:00.395Z,12.21
2022-09-28T09:28:38.833Z,12.23
2022-09-28T09:31:11.103Z,12.26
2022-09-28T09:34:11.515Z,12.27
2022-09-28T09:37:08.917Z,12.29
2022-09-28T09:39:46.025Z,12.29
2022-09-28T09:42:21.491Z,12.32
2022-09-28T09:45:05.016Z,12.36
2022-09-28T09:47:36.081Z,12.41
2022-09-28T09:50:48.458Z,12.46
2022-09-28T09:53:26.948Z,12.49
2022-09-28T09:55:57.313Z,12.52
2022-09-28T09:58:30.259Z,12.55
2022-09-28T10:01:04.636Z,12.59
2022-09-28T10:03:33.163Z,12.64
2022-09-28T10:06:09.773Z,12.67
2022-09-28T10:08:48.670Z,12.69
2022-09-28T10:11:26.375Z,12.71
2022-09-28T10:13:52.869Z,12.70
2022-09-28T10:16:19.347Z,12.69
2022-09-28T10:18:45.800Z,12.72
2022-09-28T10:21:17.721Z,12.72
2022-09-28T10:23:44.918Z,12.69
2022-09-28T10:26:25.522Z,12.71
2022-09-28T10:28:52.406Z,12.72
2022-09-28T10:31:41.961Z,12.72
2022-09-28T10:34:11.261Z,12.74
2022-09-28T10:36:55.995Z,12.78
2022-09-28T10:39:48.133Z,12.83
2022-09-28T10:42:20.334Z,12.84
2022-09-28T10:45:00.844Z,12.87
2022-09-28T10:47:31.209Z,12.91
2022-09-28T10:49:58.245Z,12.95
2022-09-28T10:52:41.883Z,13.01
2022-09-28T10:55:30.516Z,13.07
2022-09-28T10:57:56.983Z,13.12
2022-09-28T11:00:30.662Z,13.16
2022-09-28T11:02:57.150Z,13.19
2022-09-28T11:05:27.838Z,13.22
2022-09-28T11:07:55.855Z,13.26
2022-09-28T11:10:25.048Z,13.28
2022-09-28T11:12:51.992Z,13.27
2022-09-28T11:15:24.825Z,13.28
2022-09-28T11:17:51.422Z,13.27
2022-09-28T11:20:27.514Z,13.27
2022-09-28T11:22:59.602Z,13.26
2022-09-28T11:25:27.788Z,13.26
2022-09-28T11:27:54.069Z,13.27
2022-09-28T11:30:24.482Z,13.31
2022-09-28T11:32:53.140Z,13.34
2022-09-28T11:35:27.494Z,13.39
2022-09-28T11:38:11.216Z,13.42
2022-09-28T11:40:51.348Z,13.45
2022-09-28T11:43:26.936Z,13.47
2022-09-28T11:46:00.237Z,13.51
2022-09-28T11:48:39.668Z,13.52
2022-09-28T11:51:09.334Z,13.56
2022-09-28T11:53:42.113Z,13.58
2022-09-28T11:56:26.124Z,13.59
2022-09-28T11:58:55.806Z,13.57
2022-09-28T12:01:31.194Z,13.59
2022-09-28T12:04:02.793Z,13.61
2022-09-28T12:06:39.302Z,13.59
2022-09-28T12:09:22.445Z,13.58
2022-09-28T12:11:52.539Z,13.55
2022-09-28T12:14:23.466Z,13.54
2022-09-28T12:17:06.018Z,13.49
2022-09-28T12:19:47.113Z,13.44
2022-09-28T12:22:23.973Z,13.41
2022-09-28T12:24:52.813Z,13.36
2022-09-28T12:27:29.586Z,13.32
2022-09-28T12:30:06.733Z,13.24
2022-09-28T12:32:41.191Z,13.16
2022-09-28T12:35:16.710Z,13.08
2022-09-28T12:37:58.590Z,12.97
2022-09-28T12:40:33.144Z,12.88
2022-09-28T12:43:25.168Z,12.82
2022-09-28T12:46:19.683Z,12.79
2022-09-28T12:49:51.518Z,12.75
2022-09-28T12:51:59.570Z,12.73
2022-09-28T12:54:50.738Z,12.72
2022-09-28T12:57:36.594Z,12.70
2022-09-28T13:00:09.032Z,12.72
2022-09-28T13:03:19.036Z,12.71
2022-09-28T13:06:11.158Z,12.73
2022-09-28T13:08:53.262Z,12.74
2022-09-28T13:11:42.078Z,12.75
2022-09-28T13:14:39.433Z,12.79
2022-09-28T13:17:29.381Z,12.80
2022-09-28T13:19:59.811Z,12.84
2022-09-28T13:22:43.557Z,12.87
2022-09-28T13:25:14.565Z,12.89
2022-09-28T13:27:45.488Z,12.92
2022-09-28T13:30:13.898Z,12.96
2022-09-28T13:32:40.903Z,12.99
2022-09-28T13:35:11.985Z,13.03
2022-09-28T13:37:38.369Z,13.06
2022-09-28T13:40:06.299Z,13.09
2022-09-28T13:42:44.917Z,13.15
2022-09-28T13:45:26.731Z,13.17
2022-09-28T13:48:20.473Z,13.17
2022-09-28T13:51:06.746Z,13.16
2022-09-28T13:53:42.936Z,13.17
2022-09-28T13:56:24.469Z,13.18
2022-09-28T13:58:55.893Z,13.17
2022-09-28T14:01:27.202Z,13.20
2022-09-28T14:04:19.033Z,13.19
2022-09-28T14:07:11.351Z,13.19
2022-09-28T14:09:46.211Z,13.17
2022-09-28T14:12:30.118Z,13.14
2022-09-28T14:14:56.758Z,13.11
2022-09-28T14:17:27.065Z,13.05
2022-09-28T14:19:56.515Z,13.02
2022-09-28T14:22:55.168Z,12.99
2022-09-28T14:25:32.630Z,12.95
2022-09-28T14:28:01.935Z,12.92
2022-09-28T14:30:43.591Z,12.88
2022-09-28T14:33:39.170Z,12.87
2022-09-28T14:36:08.303Z,12.86
2022-09-28T14:39:08.150Z,12.87
2022-09-28T14:41:37.132Z,12.87
2022-09-28T14:44:09.515Z,12.90
2022-09-28T14:46:43.332Z,12.92
2022-09-28T14:49:23.268Z,12.91
2022-09-28T14:51:52.642Z,12.91
2022-09-28T14:54:27.334Z,12.93
2022-09-28T14:56:53.786Z,12.92
2022-09-28T14:59:25.782Z,12.93
2022-09-28T15:01:57.222Z,12.92
2022-09-28T15:04:27.971Z,12.93
2022-09-28T15:06:54.536Z,12.94
2022-09-28T15:09:31.352Z,12.96
2022-09-28T15:12:02.396Z,12.95
2022-09-28T15:14:33.247Z,12.96
2022-09-28T15:17:03.312Z,12.95
2022-09-28T15:19:48.028Z,12.93
2022-09-28T15:22:18.312Z,12.97
2022-09-28T15:24:46.189Z,12.99
2022-09-28T15:27:18.867Z,12.98
2022-09-28T15:30:14.675Z,12.96
2022-09-28T15:32:41.103Z,12.97
2022-09-28T15:35:20.471Z,12.97
2022-09-28T15:37:51.861Z,12.97
2022-09-28T15:40:29.810Z,12.97
2022-09-28T15:42:59.293Z,12.98
2022-09-28T15:45:36.601Z,13.00
2022-09-28T15:48:26.890Z,13.00
2022-09-28T15:51:11.604Z,13.01
2022-09-28T15:53:43.275Z,13.06
2022-09-28T15:56:11.636Z,13.09
2022-09-28T15:58:38.708Z,13.10
2022-09-28T16:01:27.056Z,13.12
2022-09-28T16:03:53.529Z,13.14
2022-09-28T16:06:19.914Z,13.16
2022-09-28T16:08:48.400Z,13.17
2022-09-28T16:11:19.693Z,13.19
2022-09-28T16:14:07.264Z,13.22
2022-09-28T16:16:41.253Z,13.23
2022-09-28T16:19:24.050Z,13.26
2022-09-28T16:21:52.508Z,13.29
2022-09-28T16:24:43.032Z,13.30
2022-09-28T16:27:33.173Z,13.30
2022-09-28T16:30:24.369Z,13.29
2022-09-28T16:32:59.485Z,13.26
2022-09-28T16:35:29.949Z,13.25
2022-09-28T16:38:01.746Z,13.24
2022-09-28T16:40:28.535Z,13.23
2022-09-28T16:42:58.485Z,13.21
2022-09-28T16:45:24.884Z,13.17
2022-09-28T16:47:54.489Z,13.11
2022-09-28T16:50:21.795Z,13.04
2022-09-28T16:53:19.054Z,12.96
2022-09-28T16:55:46.649Z,12.91
2022-09-28T16:58:13.109Z,12.86
2022-09-28T17:00:39.529Z,12.84
2022-09-28T17:03:18.242Z,12.81
2022-09-28T17:05:45.064Z,12.74
2022-09-28T17:08:17.187Z,12.69
2022-09-28T17:11:19.242Z,12.66
2022-09-28T17:13:38.907Z,12.61
2022-09-28T17:16:08.790Z,12.59
2022-09-28T17:18:39.149Z,12.56
2022-09-28T17:21:09.386Z,12.52
2022-09-28T17:23:35.777Z,12.49
2022-09-28T17:26:02.831Z,12.45
2022-09-28T17:28:34.476Z,12.42
2022-09-28T17:31:01.149Z,12.37
2022-09-28T17:33:28.224Z,12.34
2022-09-28T17:36:00.121Z,12.30
2022-09-28T17:38:26.919Z,12.26
2022-09-28T17:40:53.366Z,12.26
2022-09-28T17:43:22.099Z,12.24
2022-09-28T17:45:49.360Z,12.21
2022-09-28T17:48:18.269Z,12.20
2022-09-28T17:50:46.674Z,12.19
2022-09-28T17:53:14.184Z,12.18
2022-09-28T17:55:42.911Z,12.19
2022-09-28T17:58:20.590Z,12.17
2022-09-28T18:00:48.763Z,12.15
2022-09-28T18:03:17.561Z,12.15
2022-09-28T18:05:45.016Z,12.13
2022-09-28T18:08:13.742Z,12.12
2022-09-28T18:10:40.172Z,12.10
2022-09-28T18:13:06.590Z,12.09
2022-09-28T18:15:33.072Z,12.09
2022-09-28T18:17:59.619Z,12.08
2022-09-28T18:20:26.131Z,12.09
2022-09-28T18:22:52.575Z,12.10
2022-09-28T18:25:18.981Z,12.09
2022-09-28T18:27:45.416Z,12.10
2022-09-28T18:30:11.970Z,12.10
2022-09-28T18:32:38.493Z,12.10
2022-09-28T18:35:06.723Z,12.09
2022-09-28T18:37:37.895Z,12.10
2022-09-28T18:40:04.687Z,12.10
2022-09-28T18:42:32.143Z,12.08
2022-09-28T18:44:58.575Z,12.09
2022-09-28T18:47:25.501Z,12.09
2022-09-28T18:49:51.907Z,12.08
2022-09-28T18:52:18.323Z,12.08
2022-09-28T18:54:46.638Z,12.07
2022-09-28T18:57:13.086Z,12.06
2022-09-28T18:59:39.482Z,12.04
2022-09-28T19:02:06.047Z,12.04
2022-09-28T19:04:32.466Z,12.03
2022-09-28T19:06:58.898Z,12.01
2022-09-28T19:09:26.456Z,12.00
2022-09-28T19:11:52.871Z,11.98
2022-09-28T19:14:19.352Z,11.99
2022-09-28T19:16:45.841Z,11.97
2022-09-28T19:19:13.990Z,11.96
2022-09-28T19:21:43.125Z,11.96
2022-09-28T19:24:13.217Z,11.95
2022-09-28T19:26:39.678Z,11.95
2022-09-28T19:29:06.242Z,11.95
2022-09-28T19:31:32.761Z,11.95
2022-09-28T19:33:59.299Z,11.95
2022-09-28T19:36:28.353Z,11.95
2022-09-28T19:38:56.265Z,11.92
2022-09-28T19:41:46.443Z,11.90
2022-09-28T19:44:27.410Z,11.86
2022-09-28T19:46:56.086Z,11.85
2022-09-28T19:49:23.600Z,11.82
2022-09-28T19:52:11.439Z,11.79
2022-09-28T19:54:38.510Z,11.77
2022-09-28T19:57:07.678Z,11.75
2022-09-28T19:59:35.619Z,11.74
2022-09-28T20:02:03.109Z,11.72
2022-09-28T20:04:29.950Z,11.70
2022-09-28T20:06:56.385Z,11.70
2022-09-28T20:09:23.811Z,11.69
2022-09-28T20:11:51.787Z,11.69
2022-09-28T20:14:23.368Z,11.70
2022-09-28T20:16:52.227Z,11.68
2022-09-28T20:19:21.392Z,11.69
2022-09-28T20:21:48.317Z,11.65
2022-09-28T20:24:18.105Z,11.66
2022-09-28T20:26:45.834Z,11.66
2022-09-28T20:29:12.660Z,11.67
2022-09-28T20:31:39.194Z,11.66
2022-09-28T20:34:07.016Z,11.66
2022-09-28T20:36:33.832Z,11.64
2022-09-28T20:39:04.630Z,11.63
2022-09-28T20:41:36.419Z,11.61
2022-09-28T20:44:05.926Z,11.60
2022-09-28T20:46:33.528Z,11.58
2022-09-28T20:49:00.229Z,11.56
2022-09-28T20:51:26.824Z,11.55
2022-09-28T20:53:55.034Z,11.53
2022-09-28T20:56:26.895Z,11.53
2022-09-28T20:58:54.041Z,11.52
2022-09-28T21:01:25.514Z,11.52
2022-09-28T21:03:59.594Z,11.50
2022-09-28T21:06:29.893Z,11.47
2022-09-28T21:08:56.917Z,11.46
2022-09-28T21:11:24.680Z,11.45
2022-09-28T21:13:57.046Z,11.44
2022-09-28T21:16:23.854Z,11.43
2022-09-28T21:18:50.242Z,11.41
2022-09-28T21:21:18.900Z,11.40
2022-09-28T21:23:45.529Z,11.38
2022-09-28T21:26:18.845Z,11.37
2022-09-28T21:28:45.935Z,11.35
2022-09-28T21:31:12.903Z,11.35
2022-09-28T21:33:39.370Z,11.35
2022-09-28T21:36:06.918Z,11.34
2022-09-28T21:38:34.339Z,11.34
2022-09-28T21:41:00.856Z,11.34
2022-09-28T21:43:29.344Z,11.33
2022-09-28T21:45:56.364Z,11.31
2022-09-28T21:48:24.205Z,11.32
2022-09-28T21:50:54.637Z,11.31
2022-09-28T21:53:22.024Z,11.30
2022-09-28T21:55:53.110Z,11.28
2022-09-28T21:58:23.338Z,11.28
2022-09-28T22:00:58.985Z,11.25
2022-09-28T22:03:25.729Z,11.24
2022-09-28T22:05:52.381Z,11.22
2022-09-28T22:08:19.409Z,11.22
2022-09-28T22:10:46.021Z,11.21
2022-09-28T22:13:12.431Z,11.21
2022-09-28T22:15:39.154Z,11.20
2022-09-28T22:18:05.589Z,11.21
2022-09-28T22:20:31.997Z,11.21
2022-09-28T22:22:58.472Z,11.19
2022-09-28T22:25:24.865Z,11.20
2022-09-28T22:27:51.303Z,11.17
2022-09-28T22:30:17.727Z,11.16
2022-09-28T22:32:44.136Z,11.15
2022-09-28T22:35:10.529Z,11.14
2022-09-28T22:37:36.934Z,11.14
2022-09-28T22:40:03.623Z,11.12
2022-09-28T22:42:30.036Z,11.12
2022-09-28T22:44:56.439Z,11.12
2022-09-28T22:47:23.085Z,11.10
2022-09-28T22:49:49.695Z,11.12
2022-09-28T22:52:16.171Z,11.10
2022-09-28T22:54:42.588Z,11.09
2022-09-28T22:57:08.973Z,11.11
2022-09-28T22:59:35.410Z,11.10
2022-09-28T23:02:01.965Z,11.09
2022-09-28T23:04:28.855Z,11.09
2022-09-28T23:06:55.304Z,11.10
2022-09-28T23:09:21.758Z,11.11
2022-09-28T23:11:48.232Z,11.11
2022-09-28T23:14:14.686Z,11.11
2022-09-28T23:16:41.218Z,11.11
2022-09-28T23:19:07.643Z,11.10
2022-09-28T23:21:34.258Z,11.10
2022-09-28T23:24:01.572Z,11.11
2022-09-28T23:26:30.340Z,11.11
2022-09-28T23:28:57.504Z,11.11
2022-09-28T23:31:26.519Z,11.11
2022-09-28T23:33:57.329Z,11.10
2022-09-28T23:36:23.758Z,11.10
2022-09-28T23:38:50.348Z,11.08
2022-09-28T23:41:16.775Z,11.09
2022-09-28T23:43:43.178Z,11.08
2022-09-28T23:46:09.673Z,11.09
2022-09-28T23:48:36.123Z,11.09
2022-09-28T23:51:02.826Z,11.08
2022-09-28T23:53:29.726Z,11.08
2022-09-28T23:55:56.150Z,11.08
2022-09-28T23:58:22.635Z,11.08
